createdAt,value
2022-08-11T00:01:55.865Z,16.10
2022-08-11T00:04:25.240Z,16.20
2022-08-11T00:06:53.374Z,16.06
2022-08-11T00:09:23.188Z,16.07
2022-08-11T00:11:52.816Z,15.99
2022-08-11T00:14:37.069Z,15.94
2022-08-11T00:17:10.487Z,15.98
2022-08-11T00:20:15.462Z,15.95
2022-08-11T00:22:33.117Z,16.17
2022-08-11T00:25:10.104Z,16.03
2022-08-11T00:27:41.719Z,15.40
2022-08-11T00:30:10.435Z,15.92
2022-08-11T00:32:45.352Z,15.21
2022-08-11T00:35:54.255Z,15.62
2022-08-11T00:38:07.303Z,15.70
2022-08-11T00:40:51.832Z,15.62
2022-08-11T00:43:44.441Z,15.58
2022-08-11T00:46:36.170Z,15.55
2022-08-11T00:49:19.593Z,15.52
2022-08-11T00:52:19.706Z,15.52
2022-08-11T00:55:09.751Z,15.49
2022-08-11T00:58:07.402Z,15.25
2022-08-11T01:01:01.818Z,15.37
2022-08-11T01:04:18.088Z,15.29
2022-08-11T01:06:50.635Z,15.27
2022-08-11T01:09:53.089Z,15.27
2022-08-11T01:12:33.752Z,15.30
2022-08-11T01:15:24.747Z,15.45
2022-08-11T01:18:17.531Z,15.37
2022-08-11T01:21:05.403Z,15.01
2022-08-11T01:24:13.024Z,15.05
2022-08-11T01:27:19.445Z,15.07
2022-08-11T01:30:11.542Z,14.94
2022-08-11T01:33:19.154Z,14.85
2022-08-11T01:36:04.859Z,14.75
2022-08-11T01:39:00.222Z,14.56
2022-08-11T01:42:00.873Z,14.67
2022-08-11T01:44:55.397Z,14.59
2022-08-11T01:47:56.255Z,14.67
2022-08-11T01:50:57.398Z,14.71
2022-08-11T01:53:46.545Z,14.70
2022-08-11T01:56:42.855Z,14.84
2022-08-11T01:59:22.528Z,14.73
2022-08-11T02:01:58.289Z,14.50
2022-08-11T02:04:42.509Z,14.55
2022-08-11T02:07:50.310Z,14.53
2022-08-11T02:10:42.535Z,14.54
2022-08-11T02:13:52.164Z,14.51
2022-08-11T02:16:37.141Z,14.60
2022-08-11T02:20:00.458Z,14.53
2022-08-11T02:22:59.861Z,14.40
2022-08-11T02:25:38.952Z,14.34
2022-08-11T02:28:28.981Z,14.24
2022-08-11T02:32:24.094Z,14.28
2022-08-11T02:34:39.289Z,14.20
2022-08-11T02:37:24.458Z,14.11
2022-08-11T02:40:12.685Z,14.03
2022-08-11T02:42:45.731Z,14.12
2022-08-11T02:45:13.034Z,14.07
2022-08-11T02:48:15.973Z,13.96
2022-08-11T02:51:05.504Z,13.92
2022-08-11T02:54:01.193Z,13.88
2022-08-11T02:57:05.267Z,14.05
2022-08-11T02:59:53.307Z,14.02
2022-08-11T03:02:36.373Z,13.84
2022-08-11T03:05:19.266Z,13.72
2022-08-11T03:08:11.311Z,13.68
2022-08-11T03:11:36.499Z,13.72
2022-08-11T03:14:35.762Z,13.77
2022-08-11T03:17:24.072Z,13.70
2022-08-11T03:20:06.886Z,13.71
2022-08-11T03:22:47.451Z,13.70
2022-08-11T03:25:37.798Z,13.71
2022-08-11T03:28:34.594Z,13.58
2022-08-11T03:31:25.385Z,13.55
2022-08-11T03:34:08.008Z,13.39
2022-08-11T03:37:42.334Z,13.38
2022-08-11T03:41:03.208Z,13.58
2022-08-11T03:43:58.791Z,13.31
2022-08-11T03:46:48.835Z,13.25
2022-08-11T03:49:25.392Z,13.27
2022-08-11T03:51:57.972Z,13.38
2022-08-11T03:54:54.089Z,13.29
2022-08-11T03:58:14.316Z,13.44
2022-08-11T04:01:07.848Z,13.41
2022-08-11T04:03:58.290Z,13.55
2022-08-11T04:07:23.384Z,13.41
2022-08-11T04:10:15.406Z,13.24
2022-08-11T04:13:16.499Z,13.09
2022-08-11T04:16:13.901Z,13.24
2022-08-11T04:18:59.036Z,13.25
2022-08-11T04:21:59.033Z,13.25
2022-08-11T04:24:57.936Z,13.28
2022-08-11T04:27:39.415Z,13.34
2022-08-11T04:30:13.235Z,13.30
2022-08-11T04:33:04.144Z,13.34
2022-08-11T04:36:00.853Z,13.24
2022-08-11T04:38:55.454Z,13.40
2022-08-11T04:42:19.504Z,13.41
2022-08-11T04:45:06.570Z,13.51
2022-08-11T04:48:18.792Z,13.67
2022-08-11T04:51:25.829Z,13.71
2022-08-11T04:54:37.370Z,13.83
2022-08-11T04:57:36.385Z,13.89
2022-08-11T05:00:33.939Z,14.27
2022-08-11T05:03:30.021Z,14.33
2022-08-11T05:06:46.125Z,14.39
2022-08-11T05:09:17.769Z,14.48
2022-08-11T05:12:03.621Z,14.62
2022-08-11T05:14:55.073Z,14.71
2022-08-11T05:17:56.549Z,14.67
2022-08-11T05:20:45.841Z,14.75
2022-08-11T05:23:32.626Z,14.72
2022-08-11T05:26:47.612Z,14.93
2022-08-11T05:29:52.955Z,15.17
2022-08-11T05:32:43.616Z,15.08
2022-08-11T05:36:01.915Z,14.89
2022-08-11T05:38:45.188Z,15.25
2022-08-11T05:41:33.713Z,15.04
2022-08-11T05:44:24.533Z,15.49
2022-08-11T05:47:13.063Z,15.32
2022-08-11T05:50:15.597Z,15.63
2022-08-11T05:53:08.954Z,15.88
2022-08-11T05:56:10.471Z,15.84
2022-08-11T05:58:43.584Z,16.24
2022-08-11T06:01:20.909Z,16.38
2022-08-11T06:04:14.828Z,16.83
2022-08-11T06:07:15.941Z,18.15
2022-08-11T06:09:52.122Z,18.77
2022-08-11T06:12:32.206Z,18.87
2022-08-11T06:15:05.828Z,18.94
2022-08-11T06:17:38.606Z,19.53
2022-08-11T06:20:14.715Z,20.28
2022-08-11T06:22:52.812Z,19.89
2022-08-11T06:25:23.590Z,21.14
2022-08-11T06:27:58.250Z,21.54
2022-08-11T06:30:43.074Z,20.76
2022-08-11T06:33:13.906Z,22.05
2022-08-11T06:36:14.579Z,22.01
2022-08-11T06:38:58.846Z,22.01
2022-08-11T06:41:33.461Z,22.12
2022-08-11T06:44:11.957Z,22.15
2022-08-11T06:46:51.491Z,22.24
2022-08-11T06:50:05.305Z,23.43
2022-08-11T06:52:36.461Z,23.26
2022-08-11T06:55:55.418Z,24.44
2022-08-11T06:58:54.501Z,23.38
2022-08-11T07:01:51.056Z,23.80
2022-08-11T07:04:35.884Z,24.36
2022-08-11T07:07:41.223Z,25.62
2022-08-11T07:10:32.797Z,25.46
2022-08-11T07:13:44.295Z,26.21
2022-08-11T07:16:18.647Z,26.41
2022-08-11T07:19:17.581Z,25.34
2022-08-11T07:22:10.094Z,25.37
2022-08-11T07:25:14.032Z,25.47
2022-08-11T07:28:15.285Z,25.29
2022-08-11T07:30:43.398Z,24.92
2022-08-11T07:33:11.612Z,27.25
2022-08-11T07:36:02.405Z,26.68
2022-08-11T07:38:47.252Z,25.85
2022-08-11T07:41:16.803Z,25.95
2022-08-11T07:43:51.004Z,26.81
2022-08-11T07:46:45.021Z,26.96
2022-08-11T07:49:32.781Z,26.54
2022-08-11T07:52:18.821Z,28.36
2022-08-11T07:54:54.116Z,29.77
2022-08-11T07:58:13.701Z,29.57
2022-08-11T08:00:52.305Z,28.77
2022-08-11T08:03:54.508Z,29.83
2022-08-11T08:06:44.810Z,30.29
2022-08-11T08:09:46.175Z,29.38
2022-08-11T08:12:38.795Z,28.52
2022-08-11T08:15:39.075Z,28.91
2022-08-11T08:18:20.585Z,28.72
2022-08-11T08:20:55.662Z,30.19
2022-08-11T08:23:34.021Z,28.57
2022-08-11T08:26:26.558Z,29.59
2022-08-11T08:28:55.169Z,29.79
2022-08-11T08:31:22.336Z,31.31
2022-08-11T08:33:48.910Z,30.99
2022-08-11T08:36:21.880Z,31.26
2022-08-11T08:38:58.590Z,30.88
2022-08-11T08:41:32.216Z,29.74
2022-08-11T08:44:27.703Z,30.77
2022-08-11T08:47:02.641Z,30.65
2022-08-11T08:49:40.584Z,32.25
2022-08-11T08:52:30.884Z,30.86
2022-08-11T08:55:04.149Z,32.54
2022-08-11T08:57:38.946Z,33.20
2022-08-11T09:00:23.380Z,31.72
2022-08-11T09:02:53.540Z,31.67
2022-08-11T09:05:31.704Z,33.73
2022-08-11T09:08:03.105Z,33.59
2022-08-11T09:10:37.200Z,33.80
2022-08-11T09:13:06.173Z,34.27
2022-08-11T09:15:33.622Z,31.37
2022-08-11T09:18:06.430Z,33.48
2022-08-11T09:20:42.328Z,33.45
2022-08-11T09:24:08.940Z,34.72
2022-08-11T09:26:48.671Z,32.94
2022-08-11T09:29:18.621Z,32.21
2022-08-11T09:31:50.807Z,33.20
2022-08-11T09:34:20.850Z,33.26
2022-08-11T09:37:13.823Z,34.92
2022-08-11T09:40:16.483Z,33.97
2022-08-11T09:43:04.402Z,33.89
2022-08-11T09:45:39.930Z,34.06
2022-08-11T09:48:14.291Z,34.96
2022-08-11T09:50:41.509Z,34.06
2022-08-11T09:53:35.080Z,34.15
2022-08-11T09:56:25.702Z,36.06
2022-08-11T09:58:52.800Z,35.37
2022-08-11T10:01:28.220Z,34.78
2022-08-11T10:04:15.391Z,35.70
2022-08-11T10:07:09.251Z,34.98
2022-08-11T10:09:47.388Z,32.73
2022-08-11T10:12:26.138Z,33.82
2022-08-11T10:15:20.660Z,31.84
2022-08-11T10:18:17.482Z,33.75
2022-08-11T10:20:50.186Z,33.51
2022-08-11T10:23:36.409Z,35.22
2022-08-11T10:27:00.295Z,33.80
2022-08-11T10:29:59.727Z,35.23
2022-08-11T10:32:58.638Z,33.31
2022-08-11T10:35:37.956Z,34.22
2022-08-11T10:38:11.677Z,35.42
2022-08-11T10:40:45.579Z,36.39
2022-08-11T10:43:14.514Z,32.56
2022-08-11T10:46:30.020Z,33.36
2022-08-11T10:48:59.144Z,34.24
2022-08-11T10:51:50.773Z,34.79
2022-08-11T10:54:40.173Z,35.98
2022-08-11T10:57:28.737Z,36.02
2022-08-11T11:00:02.526Z,36.22
2022-08-11T11:02:29.804Z,36.69
2022-08-11T11:05:02.508Z,36.26
2022-08-11T11:07:47.814Z,33.18
2022-08-11T11:10:16.269Z,33.56
2022-08-11T11:13:06.066Z,34.57
2022-08-11T11:15:54.718Z,36.39
2022-08-11T11:18:24.979Z,34.27
2022-08-11T11:21:00.222Z,32.69
2022-08-11T11:23:39.504Z,33.62
2022-08-11T11:26:28.041Z,32.95
2022-08-11T11:29:32.609Z,34.25
2022-08-11T11:32:32.854Z,33.33
2022-08-11T11:35:18.064Z,32.61
2022-08-11T11:38:03.756Z,33.63
2022-08-11T11:40:37.898Z,34.98
2022-08-11T11:43:06.961Z,36.69
2022-08-11T11:45:33.793Z,36.99
2022-08-11T11:48:06.354Z,36.10
2022-08-11T11:50:37.628Z,32.82
2022-08-11T11:53:14.335Z,33.23
2022-08-11T11:55:51.400Z,35.24
2022-08-11T11:58:37.669Z,33.41
2022-08-11T12:01:17.189Z,32.66
2022-08-11T12:04:03.026Z,34.25
2022-08-11T12:06:37.641Z,34.81
2022-08-11T12:09:05.728Z,33.86
2022-08-11T12:11:54.748Z,34.16
2022-08-11T12:14:21.770Z,35.71
2022-08-11T12:16:49.255Z,34.14
2022-08-11T12:19:19.016Z,33.89
2022-08-11T12:22:13.885Z,36.78
2022-08-11T12:25:05.869Z,36.74
2022-08-11T12:27:42.670Z,35.07
2022-08-11T12:30:09.982Z,32.78
2022-08-11T12:32:43.037Z,35.37
2022-08-11T12:35:14.352Z,34.87
2022-08-11T12:37:54.277Z,33.93
2022-08-11T12:41:13.714Z,32.80
2022-08-11T12:44:06.639Z,37.14
2022-08-11T12:46:35.597Z,35.58
2022-08-11T12:49:31.014Z,34.99
2022-08-11T12:52:25.550Z,33.85
2022-08-11T12:55:12.582Z,35.05
2022-08-11T12:58:04.250Z,35.77
2022-08-11T13:00:53.514Z,35.05
2022-08-11T13:03:45.308Z,36.69
2022-08-11T13:06:24.547Z,36.44
2022-08-11T13:08:52.441Z,36.55
2022-08-11T13:11:56.823Z,35.47
2022-08-11T13:14:34.059Z,34.64
2022-08-11T13:17:22.247Z,32.72
2022-08-11T13:20:16.259Z,31.58
2022-08-11T13:22:55.670Z,30.92
2022-08-11T13:25:29.689Z,31.54
2022-08-11T13:28:01.462Z,31.47
2022-08-11T13:30:52.653Z,31.92
2022-08-11T13:33:21.451Z,30.66
2022-08-11T13:35:56.496Z,29.62
2022-08-11T13:38:26.241Z,30.51
2022-08-11T13:41:00.806Z,30.52
2022-08-11T13:43:31.758Z,30.32
2022-08-11T13:46:21.165Z,29.80
2022-08-11T13:48:49.923Z,30.09
2022-08-11T13:51:36.798Z,30.25
2022-08-11T13:54:09.355Z,29.77
2022-08-11T13:56:41.803Z,30.21
2022-08-11T13:59:10.322Z,29.91
2022-08-11T14:02:19.482Z,29.46
2022-08-11T14:04:57.018Z,29.25
2022-08-11T14:07:28.353Z,30.13
2022-08-11T14:09:59.126Z,30.09
2022-08-11T14:12:50.961Z,30.01
2022-08-11T14:15:25.270Z,30.31
2022-08-11T14:17:57.340Z,30.43
2022-08-11T14:20:48.200Z,29.90
2022-08-11T14:23:15.579Z,30.01
2022-08-11T14:26:03.175Z,30.25
2022-08-11T14:28:40.049Z,30.09
2022-08-11T14:31:11.501Z,30.39
2022-08-11T14:33:59.447Z,29.87
2022-08-11T14:36:28.981Z,30.05
2022-08-11T14:38:56.894Z,30.37
2022-08-11T14:42:12.666Z,29.98
2022-08-11T14:44:56.305Z,29.56
2022-08-11T14:47:25.798Z,29.71
2022-08-11T14:50:10.233Z,29.99
2022-08-11T14:52:44.323Z,30.22
2022-08-11T14:55:33.000Z,29.74
2022-08-11T14:58:02.405Z,29.75
2022-08-11T15:00:31.108Z,29.57
2022-08-11T15:03:12.234Z,29.37
2022-08-11T15:06:00.280Z,29.29
2022-08-11T15:08:56.466Z,29.67
2022-08-11T15:11:50.160Z,29.40
2022-08-11T15:14:38.611Z,29.25
2022-08-11T15:17:10.572Z,29.03
2022-08-11T15:20:00.621Z,29.66
2022-08-11T15:22:46.272Z,29.37
2022-08-11T15:25:13.110Z,29.49
2022-08-11T15:28:00.797Z,29.51
2022-08-11T15:30:47.027Z,29.61
2022-08-11T15:33:35.570Z,29.31
2022-08-11T15:36:26.229Z,29.38
2022-08-11T15:38:57.742Z,29.64
2022-08-11T15:41:58.773Z,29.69
2022-08-11T15:45:06.029Z,29.67
2022-08-11T15:47:46.139Z,29.33
2022-08-11T15:50:19.501Z,29.24
2022-08-11T15:52:53.665Z,29.18
2022-08-11T15:55:25.418Z,29.35
2022-08-11T15:58:13.685Z,29.16
2022-08-11T16:01:04.303Z,29.23
2022-08-11T16:04:07.239Z,29.33
2022-08-11T16:06:47.635Z,29.23
2022-08-11T16:09:21.277Z,29.23
2022-08-11T16:11:49.352Z,29.20
2022-08-11T16:14:36.497Z,29.18
2022-08-11T16:17:05.836Z,29.11
2022-08-11T16:19:37.175Z,29.06
2022-08-11T16:22:11.170Z,29.11
2022-08-11T16:27:01.996Z,29.06
2022-08-11T16:27:34.063Z,29.01
2022-08-11T16:30:01.590Z,28.99
2022-08-11T16:32:28.947Z,28.94
2022-08-11T16:35:18.840Z,28.91
2022-08-11T16:38:05.543Z,28.67
2022-08-11T16:40:33.610Z,28.89
2022-08-11T16:43:21.367Z,28.76
2022-08-11T16:46:07.667Z,28.71
2022-08-11T16:48:39.073Z,28.77
2022-08-11T16:51:07.825Z,28.82
2022-08-11T16:53:54.687Z,28.73
2022-08-11T16:56:39.705Z,28.66
2022-08-11T16:59:17.890Z,28.57
2022-08-11T17:01:59.393Z,28.59
2022-08-11T17:04:54.972Z,28.56
2022-08-11T17:07:50.129Z,28.53
2022-08-11T17:10:55.671Z,28.40
2022-08-11T17:13:35.293Z,28.35
2022-08-11T17:16:08.660Z,28.33
2022-08-11T17:19:02.897Z,28.27
2022-08-11T17:21:37.344Z,28.31
2022-08-11T17:24:09.529Z,28.18
2022-08-11T17:26:55.642Z,28.16
2022-08-11T17:29:32.105Z,28.07
2022-08-11T17:32:20.701Z,28.02
2022-08-11T17:35:08.661Z,28.03
2022-08-11T17:37:41.145Z,27.94
2022-08-11T17:40:15.841Z,27.97
2022-08-11T17:43:03.439Z,27.83
2022-08-11T17:45:50.361Z,27.78
2022-08-11T17:48:26.212Z,27.72
2022-08-11T17:51:03.086Z,27.68
2022-08-11T17:54:10.234Z,27.67
2022-08-11T17:56:58.478Z,27.61
2022-08-11T17:59:43.654Z,27.50
2022-08-11T18:02:36.913Z,27.35
2022-08-11T18:05:12.260Z,27.42
2022-08-11T18:08:01.492Z,27.33
2022-08-11T18:10:49.320Z,27.18
2022-08-11T18:13:41.312Z,27.20
2022-08-11T18:16:27.581Z,27.10
2022-08-11T18:19:13.610Z,27.03
2022-08-11T18:22:14.774Z,26.97
2022-08-11T18:25:07.207Z,26.92
2022-08-11T18:27:54.862Z,26.89
2022-08-11T18:30:41.695Z,26.76
2022-08-11T18:36:42.678Z,26.63
2022-08-11T18:39:30.201Z,26.47
2022-08-11T18:42:29.010Z,26.38
2022-08-11T18:45:20.186Z,26.30
2022-08-11T18:48:11.339Z,26.22
2022-08-11T18:51:31.671Z,26.15
2022-08-11T18:54:22.447Z,25.99
2022-08-11T18:57:08.725Z,25.93
2022-08-11T19:00:00.836Z,25.91
2022-08-11T19:02:49.152Z,25.67
2022-08-11T19:06:35.490Z,25.57
2022-08-11T19:08:50.083Z,25.42
2022-08-11T19:11:40.974Z,25.24
2022-08-11T19:14:37.833Z,25.28
2022-08-11T19:17:43.823Z,25.18
2022-08-11T19:20:39.505Z,25.13
2022-08-11T19:23:26.636Z,25.16
2022-08-11T19:26:12.044Z,24.84
2022-08-11T19:29:00.527Z,24.51
2022-08-11T19:31:47.765Z,24.12
2022-08-11T19:34:40.332Z,23.85
2022-08-11T19:37:28.842Z,23.69
2022-08-11T19:40:24.754Z,23.45
2022-08-11T19:43:20.595Z,23.11
2022-08-11T19:46:15.470Z,22.88
2022-08-11T19:49:03.018Z,22.75
2022-08-11T19:51:53.831Z,22.68
2022-08-11T19:54:44.252Z,22.52
2022-08-11T19:57:34.572Z,22.33
2022-08-11T20:00:30.580Z,22.26
2022-08-11T20:03:17.651Z,22.11
2022-08-11T20:06:04.266Z,21.85
2022-08-11T20:08:55.119Z,21.75
2022-08-11T20:11:44.986Z,21.61
2022-08-11T20:14:32.247Z,21.37
2022-08-11T20:17:22.588Z,21.30
2022-08-11T20:20:10.501Z,21.24
2022-08-11T20:22:58.064Z,21.19
2022-08-11T20:25:46.297Z,21.02
2022-08-11T20:28:33.451Z,20.91
2022-08-11T20:31:21.010Z,20.80
2022-08-11T20:34:11.086Z,20.55
2022-08-11T20:37:01.463Z,20.58
2022-08-11T20:39:47.790Z,20.50
2022-08-11T20:42:33.560Z,20.45
2022-08-11T20:45:23.418Z,20.32
2022-08-11T20:48:14.650Z,20.11
2022-08-11T20:51:11.765Z,19.89
2022-08-11T20:54:07.701Z,19.95
2022-08-11T20:56:54.521Z,19.81
2022-08-11T20:59:52.794Z,19.79
2022-08-11T21:02:44.535Z,19.67
2022-08-11T21:06:09.100Z,19.59
2022-08-11T21:08:39.130Z,19.58
2022-08-11T21:11:28.695Z,19.51
2022-08-11T21:14:14.265Z,19.36
2022-08-11T21:17:25.941Z,19.37
2022-08-11T21:20:17.030Z,19.23
2022-08-11T21:23:23.340Z,19.23
2022-08-11T21:26:15.704Z,19.13
2022-08-11T21:29:01.214Z,18.97
2022-08-11T21:31:51.598Z,18.92
2022-08-11T21:34:40.043Z,18.88
2022-08-11T21:37:31.032Z,18.79
2022-08-11T21:40:18.471Z,18.68
2022-08-11T21:43:08.385Z,18.66
2022-08-11T21:45:58.373Z,18.59
2022-08-11T21:48:47.363Z,18.60
2022-08-11T21:51:34.335Z,18.68
2022-08-11T21:54:20.958Z,18.63
2022-08-11T21:57:10.632Z,18.59
2022-08-11T22:00:14.545Z,18.46
2022-08-11T22:03:04.628Z,18.30
2022-08-11T22:05:52.485Z,18.15
2022-08-11T22:08:38.931Z,18.14
2022-08-11T22:11:31.691Z,17.97
2022-08-11T22:14:25.841Z,17.98
2022-08-11T22:17:11.032Z,17.94
2022-08-11T22:20:00.855Z,17.89
2022-08-11T22:22:52.333Z,17.90
2022-08-11T22:25:39.081Z,17.89
2022-08-11T22:28:31.902Z,17.87
2022-08-11T22:31:18.901Z,17.76
2022-08-11T22:34:09.285Z,17.82
2022-08-11T22:36:56.344Z,17.59
2022-08-11T22:39:43.691Z,17.49
2022-08-11T22:42:33.867Z,17.39
2022-08-11T22:45:19.943Z,17.33
2022-08-11T22:48:06.723Z,17.18
2022-08-11T22:50:57.053Z,17.25
2022-08-11T22:53:57.253Z,17.10
2022-08-11T22:56:46.571Z,17.12
2022-08-11T22:59:39.125Z,17.10
2022-08-11T23:02:26.457Z,17.07
2022-08-11T23:31:50.255Z,16.40
2022-08-11T23:35:03.484Z,16.42
2022-08-11T23:37:50.836Z,16.39
2022-08-11T23:40:35.995Z,16.39
2022-08-11T23:43:21.653Z,16.38
2022-08-11T23:46:06.639Z,16.16
2022-08-11T23:48:52.684Z,16.08
2022-08-11T23:51:40.719Z,15.97
2022-08-11T23:54:28.420Z,15.98
2022-08-11T23:57:14.272Z,16.02
2022-08-11T23:59:59.683Z,16.00
